createdAt,value
2023-04-25T00:00:16.298Z,9.99
2023-04-25T00:01:17.264Z,9.92
2023-04-25T00:02:17.455Z,9.92
2023-04-25T00:03:18.422Z,9.99
2023-04-25T00:04:19.856Z,10.02
2023-04-25T00:05:19.941Z,9.97
2023-04-25T00:06:19.876Z,10.05
2023-04-25T00:07:20.611Z,10.05
2023-04-25T00:08:21.148Z,10.02
2023-04-25T00:09:21.716Z,10.06
2023-04-25T00:10:22.701Z,10.02
2023-04-25T00:11:23.447Z,9.99
2023-04-25T00:12:24.389Z,9.99
2023-04-25T00:13:24.570Z,10.06
2023-04-25T00:14:25.507Z,10.05
2023-04-25T00:15:26.035Z,9.97
2023-04-25T00:16:27.133Z,9.97
2023-04-25T00:17:27.205Z,10.05
2023-04-25T00:18:26.869Z,9.95
2023-04-25T00:19:27.375Z,9.92
2023-04-25T00:20:27.280Z,9.94
2023-04-25T00:21:28.431Z,9.97
2023-04-25T00:22:28.918Z,9.99
2023-04-25T00:23:29.166Z,10.03
2023-04-25T00:24:29.854Z,9.95
2023-04-25T00:25:30.324Z,10.03
2023-04-25T00:26:30.816Z,9.97
2023-04-25T00:27:31.309Z,9.94
2023-04-25T00:28:31.800Z,10.03
2023-04-25T00:29:32.563Z,9.94
2023-04-25T00:30:33.336Z,9.97
2023-04-25T00:31:34.235Z,9.97
2023-04-25T00:32:35.159Z,10
2023-04-25T00:33:35.266Z,9.95
2023-04-25T00:34:35.791Z,9.91
2023-04-25T00:35:36.494Z,9.97
2023-04-25T00:36:37.561Z,9.9
2023-04-25T00:37:37.869Z,9.99
2023-04-25T00:38:38.205Z,9.95
2023-04-25T00:39:38.902Z,9.95
2023-04-25T00:40:39.411Z,9.94
2023-04-25T00:41:39.909Z,9.95
2023-04-25T00:42:40.614Z,9.95
2023-04-25T00:43:40.809Z,9.94
2023-04-25T00:44:41.920Z,9.85
2023-04-25T00:45:42.612Z,9.87
2023-04-25T00:46:43.527Z,9.84
2023-04-25T00:47:43.502Z,9.88
2023-04-25T00:48:43.816Z,9.87
2023-04-25T00:49:44.728Z,9.87
2023-04-25T00:50:45.252Z,9.74
2023-04-25T00:51:46.184Z,9.72
2023-04-25T00:52:46.874Z,9.73
2023-04-25T00:53:47.479Z,9.84
2023-04-25T00:54:47.762Z,9.74
2023-04-25T00:55:48.435Z,9.84
2023-04-25T00:56:49.152Z,9.8
2023-04-25T00:57:49.662Z,9.82
2023-04-25T00:58:50.370Z,9.88
2023-04-25T00:59:50.310Z,9.85
2023-04-25T01:00:51.291Z,9.88
2023-04-25T01:01:51.470Z,9.91
2023-04-25T01:02:52.903Z,9.82
2023-04-25T01:03:53.562Z,9.87
2023-04-25T01:04:53.755Z,9.84
2023-04-25T01:05:54.511Z,9.91
2023-04-25T01:06:54.259Z,9.92
2023-04-25T01:07:55.149Z,9.91
2023-04-25T01:08:55.067Z,9.88
2023-04-25T01:09:55.562Z,9.92
2023-04-25T01:10:56.633Z,9.87
2023-04-25T01:11:56.918Z,9.9
2023-04-25T01:12:57.232Z,9.85
2023-04-25T01:13:58.270Z,9.84
2023-04-25T01:14:59.187Z,9.85
2023-04-25T01:15:59.677Z,9.84
2023-04-25T01:17:01.024Z,9.66
2023-04-25T01:18:01.484Z,9.74
2023-04-25T01:19:01.224Z,9.76
2023-04-25T01:20:02.196Z,9.74
2023-04-25T01:21:02.752Z,9.64
2023-04-25T01:22:03.679Z,9.76
2023-04-25T01:23:04.331Z,9.66
2023-04-25T01:24:04.573Z,9.63
2023-04-25T01:25:05.505Z,9.66
2023-04-25T01:26:06.029Z,9.66
2023-04-25T01:27:06.343Z,9.62
2023-04-25T01:28:06.848Z,9.67
2023-04-25T01:29:06.930Z,9.63
2023-04-25T01:30:07.701Z,9.59
2023-04-25T01:31:08.225Z,9.62
2023-04-25T01:32:09.161Z,9.64
2023-04-25T01:33:09.694Z,9.62
2023-04-25T01:34:09.503Z,9.63
2023-04-25T01:35:10.268Z,9.64
2023-04-25T01:36:11.065Z,9.63
2023-04-25T01:37:11.601Z,9.59
2023-04-25T01:38:13.084Z,9.64
2023-04-25T01:39:13.402Z,9.67
2023-04-25T01:40:14.174Z,9.67
2023-04-25T01:41:15.074Z,9.64
2023-04-25T01:42:15.408Z,9.66
2023-04-25T01:43:15.936Z,9.67
2023-04-25T01:44:16.296Z,9.67
2023-04-25T01:45:17.022Z,9.64
2023-04-25T01:46:17.656Z,9.66
2023-04-25T01:47:18.586Z,9.59
2023-04-25T01:48:19.613Z,9.63
2023-04-25T01:49:20.205Z,9.62
2023-04-25T01:50:20.907Z,9.58
2023-04-25T01:51:21.437Z,9.58
2023-04-25T01:52:22.436Z,9.66
2023-04-25T01:53:22.956Z,9.56
2023-04-25T01:54:23.148Z,9.49
2023-04-25T01:55:23.895Z,9.44
2023-04-25T01:56:24.842Z,9.56
2023-04-25T01:57:25.781Z,9.48
2023-04-25T01:58:26.284Z,9.54
2023-04-25T01:59:27.022Z,9.52
2023-04-25T02:00:27.744Z,9.48
2023-04-25T02:01:28.556Z,9.54
2023-04-25T02:02:29.646Z,9.55
2023-04-25T02:03:30.317Z,9.47
2023-04-25T02:04:29.777Z,9.55
2023-04-25T02:05:30.455Z,9.54
2023-04-25T02:06:30.989Z,9.51
2023-04-25T02:07:31.966Z,9.63
2023-04-25T02:08:32.826Z,9.58
2023-04-25T02:09:33.121Z,9.63
2023-04-25T02:10:33.896Z,9.59
2023-04-25T02:11:34.408Z,9.63
2023-04-25T02:12:34.892Z,9.58
2023-04-25T02:13:35.585Z,9.59
2023-04-25T02:14:35.783Z,9.64
2023-04-25T02:15:36.821Z,9.59
2023-04-25T02:16:36.961Z,9.58
2023-04-25T02:17:37.091Z,9.67
2023-04-25T02:18:37.179Z,9.64
2023-04-25T02:19:37.670Z,9.64
2023-04-25T02:20:38.369Z,9.64
2023-04-25T02:21:39.285Z,9.59
2023-04-25T02:22:39.822Z,9.55
2023-04-25T02:23:40.310Z,9.59
2023-04-25T02:24:40.880Z,9.51
2023-04-25T02:25:41.611Z,9.49
2023-04-25T02:26:42.118Z,9.55
2023-04-25T02:27:42.598Z,9.55
2023-04-25T02:28:43.516Z,9.52
2023-04-25T02:29:44.488Z,9.48
2023-04-25T02:30:45.200Z,9.42
2023-04-25T02:31:46.436Z,9.42
2023-04-25T02:32:46.364Z,9.45
2023-04-25T02:33:47.200Z,9.36
2023-04-25T02:34:47.183Z,9.31
2023-04-25T02:35:47.899Z,9.39
2023-04-25T02:36:48.158Z,9.33
2023-04-25T02:37:49.086Z,9.33
2023-04-25T02:38:49.642Z,9.31
2023-04-25T02:39:50.419Z,9.31
2023-04-25T02:40:51.566Z,9.29
2023-04-25T02:41:52.041Z,9.26
2023-04-25T02:42:52.389Z,9.3
2023-04-25T02:43:53.542Z,9.27
2023-04-25T02:44:53.542Z,9.26
2023-04-25T02:45:54.032Z,9.29
2023-04-25T02:46:54.528Z,9.29
2023-04-25T02:47:55.504Z,9.29
2023-04-25T02:48:55.569Z,9.27
2023-04-25T02:49:56.071Z,9.29
2023-04-25T02:50:56.786Z,9.24
2023-04-25T02:51:56.906Z,9.29
2023-04-25T02:52:57.728Z,9.29
2023-04-25T02:53:58.683Z,9.21
2023-04-25T02:54:59.079Z,9.29
2023-04-25T02:55:59.628Z,9.3
2023-04-25T02:57:00.316Z,9.33
2023-04-25T02:58:01.039Z,9.29
2023-04-25T02:59:01.621Z,9.22
2023-04-25T03:00:02.135Z,9.12
2023-04-25T03:01:03.155Z,9.08
2023-04-25T03:02:03.764Z,9.09
2023-04-25T03:03:04.673Z,9.09
2023-04-25T03:04:04.595Z,9.12
2023-04-25T03:05:05.376Z,8.97
2023-04-25T03:06:05.899Z,8.96
2023-04-25T03:07:06.794Z,8.99
2023-04-25T03:08:06.557Z,8.97
2023-04-25T03:09:06.654Z,8.97
2023-04-25T03:10:06.978Z,9.02
2023-04-25T03:11:07.734Z,8.96
2023-04-25T03:12:08.850Z,8.97
2023-04-25T03:13:09.344Z,8.99
2023-04-25T03:14:09.876Z,8.97
2023-04-25T03:15:10.342Z,9.02
2023-04-25T03:16:11.043Z,8.95
2023-04-25T03:17:11.838Z,8.9
2023-04-25T03:18:12.229Z,8.96
2023-04-25T03:19:12.929Z,8.86
2023-04-25T03:20:13.627Z,8.89
2023-04-25T03:21:14.132Z,8.79
2023-04-25T03:22:14.676Z,8.86
2023-04-25T03:23:15.914Z,8.89
2023-04-25T03:24:16.633Z,8.84
2023-04-25T03:25:16.648Z,8.92
2023-04-25T03:26:17.357Z,8.77
2023-04-25T03:27:18.087Z,8.77
2023-04-25T03:28:18.805Z,8.86
2023-04-25T03:29:19.531Z,8.84
2023-04-25T03:30:20.032Z,8.82
2023-04-25T03:31:21.200Z,8.77
2023-04-25T03:32:22.396Z,8.77
2023-04-25T03:33:22.388Z,8.74
2023-04-25T03:34:23.308Z,8.74
2023-04-25T03:35:23.683Z,8.72
2023-04-25T03:36:24.371Z,8.81
2023-04-25T03:37:25.296Z,8.74
2023-04-25T03:38:26.320Z,8.81
2023-04-25T03:39:26.412Z,8.87
2023-04-25T03:40:27.545Z,8.89
2023-04-25T03:41:28.444Z,8.89
2023-04-25T03:42:28.993Z,8.86
2023-04-25T03:43:29.301Z,8.79
2023-04-25T03:44:29.425Z,8.78
2023-04-25T03:45:30.245Z,8.72
2023-04-25T03:46:31.079Z,8.72
2023-04-25T03:47:32.040Z,8.74
2023-04-25T03:48:31.658Z,8.74
2023-04-25T03:49:32.369Z,8.77
2023-04-25T03:50:33.428Z,8.71
2023-04-25T03:51:33.956Z,8.78
2023-04-25T03:52:35.058Z,8.75
2023-04-25T03:53:35.983Z,8.72
2023-04-25T03:54:36.479Z,8.79
2023-04-25T03:55:36.910Z,8.75
2023-04-25T03:56:37.910Z,8.74
2023-04-25T03:57:38.402Z,8.77
2023-04-25T03:58:38.932Z,8.78
2023-04-25T03:59:39.640Z,8.74
2023-04-25T04:00:40.180Z,8.79
2023-04-25T04:01:40.744Z,8.77
2023-04-25T04:02:45.626Z,8.75
2023-04-25T04:03:43.140Z,8.74
2023-04-25T04:04:43.888Z,8.77
2023-04-25T04:06:43.985Z,8.77
2023-04-25T04:07:44.192Z,8.74
2023-04-25T04:08:45.126Z,8.81
2023-04-25T04:09:45.633Z,8.78
2023-04-25T04:10:46.198Z,8.77
2023-04-25T04:11:46.984Z,8.75
2023-04-25T04:12:47.287Z,8.79
2023-04-25T04:13:48.402Z,8.78
2023-04-25T04:14:47.903Z,8.77
2023-04-25T04:15:48.394Z,8.74
2023-04-25T04:16:49.260Z,8.84
2023-04-25T04:17:49.946Z,8.82
2023-04-25T04:18:49.709Z,8.9
2023-04-25T04:19:50.237Z,8.78
2023-04-25T04:20:50.736Z,8.87
2023-04-25T04:21:51.238Z,8.82
2023-04-25T04:22:51.518Z,8.92
2023-04-25T04:23:52.802Z,8.9
2023-04-25T04:24:53.446Z,8.89
2023-04-25T04:25:54.238Z,8.87
2023-04-25T04:26:55.007Z,8.84
2023-04-25T04:27:55.524Z,8.87
2023-04-25T04:28:56.271Z,8.81
2023-04-25T04:29:56.972Z,8.75
2023-04-25T04:30:57.130Z,8.77
2023-04-25T04:31:58.456Z,8.75
2023-04-25T04:32:58.637Z,8.82
2023-04-25T04:33:58.843Z,8.77
2023-04-25T04:34:59.570Z,8.75
2023-04-25T04:35:59.980Z,8.79
2023-04-25T04:37:00.289Z,8.77
2023-04-25T04:38:00.638Z,8.63
2023-04-25T04:39:01.776Z,8.64
2023-04-25T04:40:02.286Z,8.54
2023-04-25T04:41:02.827Z,8.54
2023-04-25T04:42:03.705Z,8.53
2023-04-25T04:43:04.450Z,8.59
2023-04-25T04:44:08.772Z,8.63
2023-04-25T04:45:05.148Z,8.64
2023-04-25T04:46:06.074Z,8.61
2023-04-25T04:47:07.295Z,8.59
2023-04-25T04:48:08.258Z,8.6
2023-04-25T04:49:08.703Z,8.59
2023-04-25T04:50:09.903Z,8.66
2023-04-25T04:51:10.513Z,8.68
2023-04-25T04:52:10.992Z,8.6
2023-04-25T04:53:11.912Z,8.63
2023-04-25T04:54:12.111Z,8.66
2023-04-25T04:55:12.426Z,8.63
2023-04-25T04:56:12.834Z,8.61
2023-04-25T04:57:13.131Z,8.6
2023-04-25T04:58:13.625Z,8.66
2023-04-25T04:59:14.627Z,8.59
2023-04-25T05:00:15.026Z,8.61
2023-04-25T05:01:15.787Z,8.6
2023-04-25T05:02:16.594Z,8.66
2023-04-25T05:03:17.032Z,8.59
2023-04-25T05:04:17.626Z,8.59
2023-04-25T05:05:17.621Z,8.57
2023-04-25T05:06:17.649Z,8.57
2023-04-25T05:07:18.007Z,8.6
2023-04-25T05:08:18.763Z,8.6
2023-04-25T05:09:19.712Z,8.6
2023-04-25T05:10:20.280Z,8.66
2023-04-25T05:11:20.836Z,8.61
2023-04-25T05:12:21.556Z,8.71
2023-04-25T05:13:22.076Z,8.64
2023-04-25T05:14:22.593Z,8.68
2023-04-25T05:15:23.091Z,8.66
2023-04-25T05:16:23.594Z,8.71
2023-04-25T05:17:24.476Z,8.63
2023-04-25T05:18:27.833Z,8.66
2023-04-25T05:20:26.064Z,8.59
2023-04-25T05:21:26.148Z,8.6
2023-04-25T05:22:26.636Z,8.6
2023-04-25T05:24:15.803Z,8.64
2023-04-25T05:25:16.725Z,8.64
2023-04-25T05:26:16.616Z,8.63
2023-04-25T05:27:16.941Z,8.69
2023-04-25T05:28:17.638Z,8.63
2023-04-25T05:29:17.714Z,8.66
2023-04-25T05:30:18.450Z,8.6
2023-04-25T05:31:19.137Z,8.64
2023-04-25T05:32:19.791Z,8.66
2023-04-25T05:33:19.828Z,8.63
2023-04-25T05:34:20.225Z,8.57
2023-04-25T05:35:20.665Z,8.6
2023-04-25T05:36:21.813Z,8.6
2023-04-25T05:37:22.530Z,8.57
2023-04-25T05:38:23.624Z,8.59
2023-04-25T05:39:24.106Z,8.71
2023-04-25T05:40:24.915Z,8.71
2023-04-25T05:41:25.824Z,8.75
2023-04-25T05:42:26.348Z,8.79
2023-04-25T05:43:27.459Z,8.79
2023-04-25T05:44:27.906Z,8.82
2023-04-25T05:45:28.609Z,8.82
2023-04-25T05:46:29.731Z,8.86
2023-04-25T05:47:29.597Z,8.89
2023-04-25T05:48:30.604Z,8.96
2023-04-25T05:49:30.515Z,8.92
2023-04-25T05:50:31.445Z,8.97
2023-04-25T05:51:32.172Z,8.96
2023-04-25T05:52:33.056Z,8.96
2023-04-25T05:53:33.777Z,9.05
2023-04-25T05:54:33.960Z,9.09
2023-04-25T05:55:34.861Z,9
2023-04-25T05:56:34.887Z,9.03
2023-04-25T05:57:35.696Z,9.02
2023-04-25T05:58:36.395Z,8.96
2023-04-25T05:59:37.136Z,8.89
2023-04-25T06:00:37.110Z,8.82
2023-04-25T06:01:38.044Z,8.77
2023-04-25T06:02:39.239Z,8.74
2023-04-25T06:03:40.720Z,8.74
2023-04-25T06:04:41.056Z,8.78
2023-04-25T06:05:41.360Z,8.84
2023-04-25T06:06:42.035Z,8.87
2023-04-25T06:07:42.580Z,8.86
2023-04-25T06:08:43.335Z,8.82
2023-04-25T06:09:44.467Z,8.89
2023-04-25T06:10:44.430Z,8.79
2023-04-25T06:11:44.942Z,8.72
2023-04-25T06:12:45.691Z,8.75
2023-04-25T06:13:46.820Z,8.69
2023-04-25T06:14:47.549Z,8.6
2023-04-25T06:15:48.123Z,8.59
2023-04-25T06:16:48.408Z,8.6
2023-04-25T06:17:48.808Z,8.56
2023-04-25T06:18:49.528Z,8.6
2023-04-25T06:19:50.528Z,8.64
2023-04-25T06:20:51.248Z,8.69
2023-04-25T06:21:52.194Z,8.69
2023-04-25T06:22:52.899Z,8.72
2023-04-25T06:23:54.264Z,8.69
2023-04-25T06:24:54.080Z,8.71
2023-04-25T06:25:54.559Z,8.78
2023-04-25T06:26:55.483Z,8.81
2023-04-25T06:27:55.997Z,8.82
2023-04-25T06:28:56.547Z,8.95
2023-04-25T06:29:57.052Z,9
2023-04-25T06:30:57.558Z,9.15
2023-04-25T06:31:58.428Z,9.03
2023-04-25T06:32:59.297Z,9.11
2023-04-25T06:34:00.186Z,9.11
2023-04-25T06:35:00.972Z,9.24
2023-04-25T06:36:01.274Z,9.29
2023-04-25T06:37:01.812Z,9.29
2023-04-25T06:38:02.723Z,9.44
2023-04-25T06:39:03.647Z,9.48
2023-04-25T06:40:04.132Z,9.48
2023-04-25T06:41:04.881Z,9.39
2023-04-25T06:42:05.581Z,9.42
2023-04-25T06:43:06.388Z,9.51
2023-04-25T06:44:07.132Z,9.51
2023-04-25T06:45:07.576Z,9.63
2023-04-25T06:46:08.521Z,9.7
2023-04-25T06:47:09.462Z,10
2023-04-25T06:48:10.156Z,10.1
2023-04-25T06:49:11.131Z,10.25
2023-04-25T06:50:11.655Z,10.39
2023-04-25T06:51:11.955Z,10.31
2023-04-25T06:52:12.907Z,10.34
2023-04-25T06:53:13.398Z,10.28
2023-04-25T06:54:14.536Z,10.42
2023-04-25T06:55:15.540Z,10.38
2023-04-25T06:56:15.545Z,10.48
2023-04-25T06:57:16.266Z,10.53
2023-04-25T06:58:16.986Z,10.58
2023-04-25T06:59:17.567Z,10.53
2023-04-25T07:00:18.707Z,10.46
2023-04-25T07:01:18.987Z,10.65
2023-04-25T07:02:19.012Z,10.59
2023-04-25T07:03:19.655Z,10.67
2023-04-25T07:04:21.500Z,10.62
2023-04-25T07:05:21.599Z,10.68
2023-04-25T07:06:21.866Z,10.68
2023-04-25T07:07:22.424Z,10.64
2023-04-25T07:08:22.736Z,10.75
2023-04-25T07:09:23.277Z,10.75
2023-04-25T07:10:24.059Z,10.89
2023-04-25T07:11:25.033Z,10.89
2023-04-25T07:12:25.985Z,11.05
2023-04-25T07:13:26.541Z,11.01
2023-04-25T07:14:27.048Z,11.02
2023-04-25T07:15:28.158Z,10.87
2023-04-25T07:16:29.232Z,10.92
2023-04-25T07:17:29.289Z,10.89
2023-04-25T07:18:29.311Z,10.92
2023-04-25T07:19:30.242Z,10.95
2023-04-25T07:20:31.087Z,10.84
2023-04-25T07:21:32.042Z,10.82
2023-04-25T07:22:32.602Z,10.77
2023-04-25T07:23:33.182Z,10.65
2023-04-25T07:24:33.969Z,10.51
2023-04-25T07:25:34.631Z,10.59
2023-04-25T07:26:35.196Z,10.61
2023-04-25T07:27:36.334Z,10.58
2023-04-25T07:28:36.337Z,10.67
2023-04-25T07:29:37.258Z,10.62
2023-04-25T07:30:37.343Z,10.67
2023-04-25T07:31:38.395Z,10.65
2023-04-25T07:32:39.227Z,10.69
2023-04-25T07:33:39.838Z,10.62
2023-04-25T07:34:40.368Z,10.67
2023-04-25T07:35:41.362Z,10.62
2023-04-25T07:36:41.898Z,10.57
2023-04-25T07:37:42.940Z,10.62
2023-04-25T07:38:42.951Z,10.64
2023-04-25T07:39:42.807Z,10.59
2023-04-25T07:40:43.993Z,10.77
2023-04-25T07:41:44.081Z,10.65
2023-04-25T07:42:44.954Z,10.64
2023-04-25T07:43:45.756Z,10.8
2023-04-25T07:44:46.462Z,11.1
2023-04-25T07:45:47.022Z,11.33
2023-04-25T07:46:47.594Z,11.67
2023-04-25T07:47:48.146Z,11.78
2023-04-25T07:48:49.784Z,11.85
2023-04-25T07:49:49.448Z,12.18
2023-04-25T07:50:50.156Z,12.39
2023-04-25T07:51:50.698Z,12.86
2023-04-25T07:52:51.640Z,13.08
2023-04-25T07:53:51.635Z,13.37
2023-04-25T07:54:52.224Z,13.39
2023-04-25T07:55:52.706Z,13.54
2023-04-25T07:56:59.216Z,13.7
2023-04-25T07:58:54.556Z,14.01
2023-04-25T07:59:54.854Z,14
2023-04-25T08:00:55.439Z,13.85
2023-04-25T08:01:56.124Z,13.68
2023-04-25T08:02:57.151Z,13.57
2023-04-25T08:03:58.222Z,13.4
2023-04-25T08:04:58.382Z,13.54
2023-04-25T08:05:59.180Z,13.7
2023-04-25T08:06:59.207Z,13.8
2023-04-25T08:08:00.197Z,13.76
2023-04-25T08:09:01.104Z,13.71
2023-04-25T08:10:01.651Z,13.78
2023-04-25T08:11:02.389Z,14.01
2023-04-25T08:12:03.174Z,14
2023-04-25T08:13:04.109Z,13.85
2023-04-25T08:14:04.885Z,13.76
2023-04-25T08:15:05.842Z,13.73
2023-04-25T08:16:06.833Z,13.93
2023-04-25T08:17:06.888Z,14.07
2023-04-25T08:18:07.877Z,14.22
2023-04-25T08:19:08.842Z,14.2
2023-04-25T08:20:09.643Z,14.37
2023-04-25T08:21:10.864Z,14.26
2023-04-25T08:22:11.568Z,14.36
2023-04-25T08:23:12.111Z,14.4
2023-04-25T08:24:12.832Z,14.33
2023-04-25T08:25:13.533Z,14.48
2023-04-25T08:26:13.987Z,14.4
2023-04-25T08:27:14.062Z,14.71
2023-04-25T08:28:15.477Z,15.12
2023-04-25T08:30:15.364Z,15.47
2023-04-25T08:31:16.520Z,15.9
2023-04-25T08:32:16.580Z,16.24
2023-04-25T08:33:18.177Z,16.57
2023-04-25T08:34:17.989Z,16.94
2023-04-25T08:35:18.651Z,17.42
2023-04-25T08:36:39.992Z,17.44
2023-04-25T08:37:19.169Z,17.24
2023-04-25T08:38:19.968Z,17.01
2023-04-25T08:39:20.767Z,16.65
2023-04-25T08:40:21.748Z,16.06
2023-04-25T08:41:22.663Z,15.65
2023-04-25T08:42:23.511Z,15.3
2023-04-25T08:43:24.319Z,14.92
2023-04-25T08:44:25.042Z,14.51
2023-04-25T08:45:25.953Z,14.43
2023-04-25T08:46:26.626Z,14.33
2023-04-25T08:47:27.708Z,13.97
2023-04-25T08:48:28.108Z,13.78
2023-04-25T08:49:28.837Z,13.43
2023-04-25T08:50:29.406Z,13.39
2023-04-25T08:51:29.890Z,13.17
2023-04-25T08:52:30.665Z,12.98
2023-04-25T08:53:31.891Z,12.8
2023-04-25T08:54:42.826Z,12.53
2023-04-25T08:56:34.942Z,12.37
2023-04-25T08:57:34.054Z,12.3
2023-04-25T08:58:33.746Z,12.15
2023-04-25T08:59:38.614Z,12.07
2023-04-25T09:00:35.877Z,12.02
2023-04-25T09:01:36.114Z,11.85
2023-04-25T09:02:37.408Z,11.85
2023-04-25T09:03:37.914Z,11.78
2023-04-25T09:04:38.057Z,11.81
2023-04-25T09:05:39.476Z,11.86
2023-04-25T09:07:39.307Z,11.95
2023-04-25T09:08:40.084Z,11.97
2023-04-25T09:09:40.846Z,11.99
2023-04-25T09:10:41.454Z,12.3
2023-04-25T09:11:42.067Z,12.53
2023-04-25T09:12:42.303Z,12.57
2023-04-25T09:13:42.469Z,12.53
2023-04-25T09:14:42.705Z,12.44
2023-04-25T09:15:43.677Z,12.21
2023-04-25T09:16:45.727Z,12.08
2023-04-25T09:17:45.526Z,11.89
2023-04-25T09:18:53.595Z,11.73
2023-04-25T09:21:14.828Z,11.49
2023-04-25T09:22:49.829Z,11.34
2023-04-25T09:23:51.244Z,11.27
2023-04-25T09:24:51.124Z,11.22
2023-04-25T09:25:51.895Z,11.26
2023-04-25T09:26:52.204Z,11.25
2023-04-25T09:27:52.616Z,11.2
2023-04-25T09:28:52.812Z,11.35
2023-04-25T09:29:52.832Z,11.43
2023-04-25T09:30:52.752Z,11.38
2023-04-25T09:31:53.929Z,11.56
2023-04-25T09:32:53.778Z,11.56
2023-04-25T09:33:57.404Z,11.7
2023-04-25T09:34:55.405Z,11.63
2023-04-25T09:35:56.029Z,11.99
2023-04-25T09:36:57.067Z,12.18
2023-04-25T09:37:57.860Z,12.37
2023-04-25T09:38:59.144Z,12.69
2023-04-25T09:39:58.824Z,12.81
2023-04-25T09:40:58.831Z,12.81
2023-04-25T09:41:59.980Z,12.76
2023-04-25T09:43:00.190Z,12.76
2023-04-25T09:44:02.409Z,12.78
2023-04-25T09:45:01.734Z,12.62
2023-04-25T09:46:02.123Z,12.7
2023-04-25T09:48:02.922Z,12.58
2023-04-25T09:49:02.841Z,12.53
2023-04-25T09:50:03.851Z,12.37
2023-04-25T09:51:04.561Z,12.3
2023-04-25T09:52:05.427Z,12.2
2023-04-25T09:53:05.505Z,12.08
2023-04-25T09:54:06.247Z,12
2023-04-25T09:55:07.056Z,12
2023-04-25T09:56:08.139Z,12.05
2023-04-25T09:57:07.845Z,12.07
2023-04-25T09:58:08.921Z,12.05
2023-04-25T09:59:09.863Z,12.11
2023-04-25T10:00:10.547Z,12.25
2023-04-25T10:01:11.477Z,12.18
2023-04-25T10:02:11.470Z,12.33
2023-04-25T10:03:12.634Z,12.28
2023-04-25T10:04:13.560Z,12.48
2023-04-25T10:05:13.882Z,12.61
2023-04-25T10:06:14.679Z,12.66
2023-04-25T10:07:15.565Z,12.83
2023-04-25T10:08:15.727Z,12.9
2023-04-25T10:09:16.801Z,13.11
2023-04-25T10:10:16.825Z,13.3
2023-04-25T10:11:17.520Z,13.2
2023-04-25T10:12:17.660Z,13.43
2023-04-25T10:13:17.406Z,13.5
2023-04-25T10:14:18.122Z,13.57
2023-04-25T10:15:19.096Z,13.58
2023-04-25T10:16:20.356Z,13.4
2023-04-25T10:18:21.045Z,13.19
2023-04-25T10:19:22.014Z,13.09
2023-04-25T10:20:22.864Z,12.9
2023-04-25T10:21:23.602Z,12.72
2023-04-25T10:22:24.576Z,12.68
2023-04-25T10:23:24.300Z,12.53
2023-04-25T10:24:25.813Z,12.37
2023-04-25T10:25:26.688Z,12.29
2023-04-25T10:26:30.790Z,12.25
2023-04-25T10:28:28.901Z,12.18
2023-04-25T10:29:29.031Z,12.05
2023-04-25T10:30:29.613Z,12.1
2023-04-25T10:31:30.936Z,11.88
2023-04-25T10:32:31.774Z,11.78
2023-04-25T10:33:31.128Z,11.78
2023-04-25T10:34:32.062Z,11.53
2023-04-25T10:35:32.998Z,11.4
2023-04-25T10:36:33.482Z,11.3
2023-04-25T10:37:34.192Z,11.19
2023-04-25T10:38:34.531Z,11.02
2023-04-25T10:39:35.088Z,10.92
2023-04-25T10:40:35.409Z,10.97
2023-04-25T10:41:36.357Z,10.86
2023-04-25T10:42:37.044Z,10.9
2023-04-25T10:43:38.265Z,10.86
2023-04-25T10:44:38.267Z,10.87
2023-04-25T10:45:39.264Z,10.89
2023-04-25T10:46:39.514Z,10.82
2023-04-25T10:47:39.200Z,10.83
2023-04-25T10:48:39.620Z,10.79
2023-04-25T10:49:40.540Z,10.86
2023-04-25T10:50:41.450Z,10.8
2023-04-25T10:52:00.562Z,10.71
2023-04-25T10:53:42.874Z,10.77
2023-04-25T10:54:43.690Z,10.76
2023-04-25T10:55:44.069Z,10.59
2023-04-25T10:56:44.962Z,10.58
2023-04-25T10:57:45.790Z,10.51
2023-04-25T10:58:47.262Z,10.58
2023-04-25T10:59:46.862Z,10.45
2023-04-25T11:00:59.199Z,10.41
2023-04-25T11:02:49.271Z,10.25
2023-04-25T11:03:49.572Z,10.27
2023-04-25T11:04:49.294Z,10.23
2023-04-25T11:06:00.669Z,10.21
2023-04-25T11:08:08.084Z,10.18
2023-04-25T11:08:51.370Z,10.13
2023-04-25T11:09:51.452Z,10.1
2023-04-25T11:10:52.732Z,9.95
2023-04-25T11:11:52.461Z,10.03
2023-04-25T11:12:53.438Z,9.82
2023-04-25T11:13:53.603Z,9.76
2023-04-25T11:14:54.553Z,9.73
2023-04-25T11:16:18.025Z,9.73
2023-04-25T11:17:57.415Z,9.69
2023-04-25T11:18:58.323Z,9.73
2023-04-25T11:19:59.035Z,9.74
2023-04-25T11:20:59.749Z,9.8
2023-04-25T11:22:00.684Z,9.72
2023-04-25T11:23:00.966Z,9.87
2023-04-25T11:24:01.122Z,9.87
2023-04-25T11:25:02.204Z,9.85
2023-04-25T11:26:02.841Z,9.91
2023-04-25T11:27:03.972Z,9.95
2023-04-25T11:28:04.181Z,10.15
2023-04-25T11:29:05.350Z,10.23
2023-04-25T11:30:06.174Z,10.23
2023-04-25T11:31:06.924Z,10.38
2023-04-25T11:32:07.381Z,10.42
2023-04-25T11:33:08.278Z,10.45
2023-04-25T11:34:08.165Z,10.71
2023-04-25T11:35:08.688Z,10.76
2023-04-25T11:36:09.654Z,11
2023-04-25T11:37:10.205Z,11.07
2023-04-25T11:38:10.073Z,11.35
2023-04-25T11:39:11.910Z,11.56
2023-04-25T11:40:11.788Z,11.83
2023-04-25T11:41:11.579Z,12.03
2023-04-25T11:42:20.031Z,12.25
2023-04-25T11:44:13.103Z,12.53
2023-04-25T11:45:14.286Z,12.66
2023-04-25T11:46:15.365Z,12.8
2023-04-25T11:47:15.432Z,12.87
2023-04-25T11:48:16.512Z,13.03
2023-04-25T11:49:16.960Z,13.08
2023-04-25T11:50:18.086Z,13.19
2023-04-25T11:51:18.605Z,13.28
2023-04-25T11:52:19.307Z,13.4
2023-04-25T11:53:20.025Z,13.46
2023-04-25T11:54:20.552Z,13.57
2023-04-25T11:55:21.391Z,13.57
2023-04-25T11:56:21.553Z,13.43
2023-04-25T11:57:21.460Z,13.55
2023-04-25T11:58:22.196Z,13.68
2023-04-25T11:59:23.215Z,13.85
2023-04-25T12:00:24.983Z,14.03
2023-04-25T12:01:24.782Z,13.82
2023-04-25T12:02:26.020Z,14.01
2023-04-25T12:03:27.082Z,14.03
2023-04-25T12:04:27.383Z,14.01
2023-04-25T12:05:38.710Z,13.85
2023-04-25T12:07:27.553Z,13.75
2023-04-25T12:08:28.141Z,13.68
2023-04-25T12:09:28.951Z,13.67
2023-04-25T12:10:30.052Z,13.73
2023-04-25T12:11:30.078Z,13.75
2023-04-25T12:12:30.820Z,13.64
2023-04-25T12:13:31.342Z,13.54
2023-04-25T12:14:32.124Z,13.46
2023-04-25T12:15:32.901Z,13.21
2023-04-25T12:16:33.573Z,13.26
2023-04-25T12:17:33.830Z,13.11
2023-04-25T12:18:35.004Z,13.31
2023-04-25T12:19:35.257Z,13.2
2023-04-25T12:20:36.000Z,13.13
2023-04-25T12:22:37.676Z,12.8
2023-04-25T12:23:38.433Z,12.65
2023-04-25T12:24:40.271Z,12.44
2023-04-25T12:25:40.516Z,12.35
2023-04-25T12:26:40.946Z,12.18
2023-04-25T12:27:41.769Z,12.08
2023-04-25T12:28:42.099Z,11.86
2023-04-25T12:29:55.536Z,11.56
2023-04-25T12:31:45.234Z,10.97
2023-04-25T12:32:45.771Z,10.76
2023-04-25T12:33:45.595Z,10.61
2023-04-25T12:34:46.149Z,10.53
2023-04-25T12:35:48.851Z,10.39
2023-04-25T12:37:48.549Z,10.27
2023-04-25T12:38:49.997Z,10.55
2023-04-25T12:39:49.408Z,10.62
2023-04-25T12:40:50.480Z,10.53
2023-04-25T12:41:50.764Z,10.53
2023-04-25T12:42:51.504Z,10.39
2023-04-25T12:43:52.202Z,10.24
2023-04-25T12:44:53.298Z,10.12
2023-04-25T12:45:54.311Z,10.05
2023-04-25T12:46:55.429Z,9.82
2023-04-25T12:47:56.284Z,9.7
2023-04-25T12:49:08.409Z,9.59
2023-04-25T12:49:56.939Z,9.55
2023-04-25T12:50:57.385Z,9.59
2023-04-25T12:51:58.138Z,9.4
2023-04-25T12:52:58.674Z,9.36
2023-04-25T12:53:59.700Z,9.34
2023-04-25T12:54:59.987Z,9.39
2023-04-25T12:56:01.415Z,9.4
2023-04-25T12:57:01.357Z,9.36
2023-04-25T12:58:01.851Z,9.26
2023-04-25T12:59:02.798Z,9.18
2023-04-25T13:00:03.960Z,9.13
2023-04-25T13:01:04.790Z,9.08
2023-04-25T13:02:05.891Z,9.02
2023-04-25T13:03:06.893Z,8.89
2023-04-25T13:04:06.942Z,8.77
2023-04-25T13:05:07.396Z,8.74
2023-04-25T13:06:08.378Z,8.81
2023-04-25T13:07:08.930Z,8.77
2023-04-25T13:08:09.883Z,8.79
2023-04-25T13:09:09.753Z,8.64
2023-04-25T13:10:10.450Z,8.71
2023-04-25T13:11:11.215Z,8.59
2023-04-25T13:12:11.527Z,8.64
2023-04-25T13:13:12.666Z,8.57
2023-04-25T13:14:13.759Z,8.57
2023-04-25T13:15:13.761Z,8.39
2023-04-25T13:16:15.102Z,8.41
2023-04-25T13:17:15.171Z,8.44
2023-04-25T13:18:16.233Z,8.39
2023-04-25T13:20:16.692Z,8.49
2023-04-25T13:21:17.702Z,8.5
2023-04-25T13:22:18.776Z,8.69
2023-04-25T13:23:19.398Z,8.74
2023-04-25T13:24:20.258Z,8.89
2023-04-25T13:25:20.996Z,8.96
2023-04-25T13:26:21.660Z,8.99
2023-04-25T13:27:22.330Z,9
2023-04-25T13:28:23.141Z,9.09
2023-04-25T13:29:23.987Z,9.18
2023-04-25T13:30:24.388Z,9.24
2023-04-25T13:31:25.055Z,9.27
2023-04-25T13:32:25.981Z,9.24
2023-04-25T13:33:26.028Z,9.22
2023-04-25T13:34:26.550Z,9.29
2023-04-25T13:35:27.152Z,9.3
2023-04-25T13:36:28.419Z,9.18
2023-04-25T13:37:28.225Z,9.21
2023-04-25T13:38:28.380Z,9.39
2023-04-25T13:39:29.355Z,9.31
2023-04-25T13:40:31.352Z,9.34